ナンディ の空港の天気 - METARとTAF

ナンディ国際空港 ( NFFN / NAN ) - フィジー ナンディ (ビティレブ島)
飛行場実況気象(Metar)
観測時間10/22 23:00 FJT (10/22 11:00 UTC)
風向・風速南東 5m/s
視程10km以上
天気現象
少しの雲 雲底高度 910m
気温24℃
湿度74%
気圧1014hPa
METARNFFN 221100Z 13009KT 9999 FEW030 24/19 Q1014 NOSIG
過去の天気等 Google飛行場航空写真 Wunderground天気予報

過去48時間のMETAR

飛行場予報(TAF)
発表時間: 10/22 23:21 FJT (10/22 11:21 UTC)
予報対象時間: 23日0時 FJT ~ 24日0時 FJT
風向・風速東南東 5m/s
視程10km以上
少しの雲 雲底高度 910m
23日10時 FJT ~ 23日12時 FJT に徐々に
風向・風速北西 6m/s
23日14時 FJT ~ 23日18時 FJT に 確率 30% で一時的に
視程5000m
天気現象しゅう雨
全天の8割程度の雲 雲底高度 460m
23日16時 FJT ~ 23日18時 FJT に徐々に
風向・風速東 4m/s
TAF NFFN 221121Z 2212/2312 12009KT 9999 FEW030
BECMG 2222/2224 32012KT
PROB30 TEMPO 2302/2306 5000 SHRA BKN015
BECMG 2304/2306 10007KT